Time;durP1;ratioP1;P1;durP2;ratioP2;P2;SDS_P1;SDS_P2;PMS_P1;PMS_P2;Temp;Humidity;BMP_temperature;BMP_pressure;BME280_temperature;BME280_humidity;BME280_pressure;Samples;Min_cycle;Max_cycle;Signal;HPM_P1;HPM_P2
2022/05/19 00:01:01;;;;;;;69.68;51.97;;;27.90;99.90;;;;;;5058197;28;20150;-62
2022/05/19 00:03:26;;;;;;;82.72;57.08;;;27.90;99.90;;;;;;5074230;28;20029;-61
2022/05/19 00:05:53;;;;;;;76.55;55.42;;;28.00;99.90;;;;;;5074588;28;20020;-60
2022/05/19 00:08:20;;;;;;;75.07;56.15;;;28.10;99.90;;;;;;5072067;28;20078;-63
2022/05/19 00:10:47;;;;;;;79.40;61.28;;;28.10;99.90;;;;;;5054491;28;20111;-62
2022/05/19 00:13:14;;;;;;;81.93;57.63;;;28.10;99.90;;;;;;5054243;28;20414;-63
2022/05/19 00:15:41;;;;;;;91.63;60.50;;;28.10;99.90;;;;;;5054204;28;20547;-63
2022/05/19 00:18:07;;;;;;;91.15;63.97;;;28.00;99.90;;;;;;5053571;28;20033;-59
2022/05/19 00:20:34;;;;;;;88.13;63.58;;;28.00;99.90;;;;;;5053839;28;20036;-61
2022/05/19 00:23:01;;;;;;;89.07;63.20;;;28.10;99.90;;;;;;5053958;28;20060;-66
2022/05/19 00:25:28;;;;;;;100.95;69.63;;;28.20;99.90;;;;;;5053863;28;20057;-63
2022/05/19 00:27:54;;;;;;;89.25;62.58;;;28.20;99.90;;;;;;5054050;28;20017;-62
2022/05/19 00:30:21;;;;;;;91.72;61.53;;;28.20;99.90;;;;;;5054090;28;20418;-63
2022/05/19 00:32:48;;;;;;;84.15;61.53;;;28.20;99.90;;;;;;5053876;28;20084;-63
2022/05/19 00:35:16;;;;;;;83.07;59.85;;;28.20;99.90;;;;;;5055508;28;20037;-60
2022/05/19 00:37:43;;;;;;;72.28;57.08;;;28.20;99.90;;;;;;5054273;28;20040;-65
2022/05/19 00:40:11;;;;;;;74.55;53.38;;;28.30;99.90;;;;;;5054839;28;20025;-62
2022/05/19 00:42:46;;;;;;;72.55;52.10;;;28.40;99.90;;;;;;5048748;28;20020;-61
2022/05/19 00:45:18;;;;;;;71.32;52.97;;;28.50;99.90;;;;;;5052806;28;20021;-60
2022/05/19 00:48:07;;;;;;;71.00;51.97;;;28.50;99.90;;;;;;5051325;28;20048;-62
2022/05/19 00:50:56;;;;;;;74.38;50.50;;;28.50;99.90;;;;;;5053052;28;20083;-63
2022/05/19 00:53:39;;;;;;;65.78;50.60;;;28.50;99.90;;;;;;5046929;28;20041;-63
2022/05/19 00:56:14;;;;;;;74.55;52.45;;;28.50;99.90;;;;;;5048465;28;20028;-62
2022/05/19 00:59:15;;;;;;;67.78;50.13;;;28.60;99.90;;;;;;5055459;28;20037;-62
2022/05/19 01:01:44;;;;;;;72.80;50.85;;;28.60;99.90;;;;;;5054276;28;20041;-62
2022/05/19 01:04:18;;;;;;;73.97;53.25;;;28.60;99.90;;;;;;5084700;28;20048;-62
2022/05/19 01:06:48;;;;;;;66.78;49.58;;;28.70;99.90;;;;;;5095228;28;20090;-63
2022/05/19 01:09:16;;;;;;;75.60;54.80;;;28.80;99.90;;;;;;5095197;28;20099;-61
2022/05/19 01:11:44;;;;;;;74.70;53.33;;;28.80;99.90;;;;;;5094285;28;20381;-65
2022/05/19 01:14:11;;;;;;;75.38;53.65;;;28.90;99.90;;;;;;5094921;28;20450;-64
2022/05/19 01:16:38;;;;;;;71.00;52.53;;;29.00;99.90;;;;;;5094898;28;20031;-64
2022/05/19 01:19:19;;;;;;;76.53;54.38;;;29.10;99.90;;;;;;5094735;28;20028;-64
2022/05/19 01:21:47;;;;;;;64.20;48.88;;;29.00;99.90;;;;;;5093100;28;20042;-61
2022/05/19 01:24:25;;;;;;;69.72;50.90;;;29.10;99.90;;;;;;5094076;28;20024;-64
2022/05/19 01:26:57;;;;;;;59.58;45.20;;;29.20;99.90;;;;;;5090331;28;20028;-64
2022/05/19 01:29:27;;;;;;;62.28;45.47;;;29.40;99.90;;;;;;5093930;28;20045;-65
2022/05/19 01:32:00;;;;;;;57.95;44.20;;;29.40;99.90;;;;;;5088396;28;20095;-65
2022/05/19 01:34:32;;;;;;;54.38;42.60;;;29.50;99.90;;;;;;5091078;28;20054;-62
2022/05/19 01:36:59;;;;;;;62.85;47.63;;;29.60;99.90;;;;;;5092944;28;20028;-63
2022/05/19 01:39:30;;;;;;;60.72;48.70;;;29.70;99.90;;;;;;5094088;28;20020;-65
2022/05/19 01:42:19;;;;;;;55.30;42.77;;;29.60;99.90;;;;;;5094653;28;20020;-66
2022/05/19 01:45:25;;;;;;;56.15;42.90;;;29.60;99.90;;;;;;5075672;28;20354;-64
2022/05/19 01:48:04;;;;;;;64.22;44.60;;;29.70;99.90;;;;;;5090578;28;20086;-65
2022/05/19 01:50:49;;;;;;;54.97;41.60;;;29.80;99.90;;;;;;5084486;28;20031;-64
2022/05/19 01:53:55;;;;;;;52.38;37.08;;;29.80;99.90;;;;;;5094773;28;20024;-64
2022/05/19 01:56:49;;;;;;;41.90;33.50;;;29.90;99.90;;;;;;5093958;28;20023;-65
2022/05/19 01:59:28;;;;;;;47.40;35.30;;;30.00;99.90;;;;;;5094264;28;20024;-64
2022/05/19 02:02:05;;;;;;;51.53;39.35;;;30.00;99.90;;;;;;5093729;28;20012;-63
2022/05/19 02:04:48;;;;;;;48.45;36.65;;;30.10;99.90;;;;;;5093415;28;20047;-62
2022/05/19 02:07:16;;;;;;;49.28;36.75;;;30.10;99.90;;;;;;5092967;28;20024;-63
2022/05/19 02:09:51;;;;;;;44.03;33.65;;;30.20;99.90;;;;;;5091434;28;20476;-63
2022/05/19 02:12:18;;;;;;;43.75;35.85;;;30.30;99.90;;;;;;5088467;28;20040;-63
2022/05/19 02:14:53;;;;;;;42.97;33.65;;;30.30;99.90;;;;;;5090670;28;20035;-63
2022/05/19 02:17:23;;;;;;;40.78;34.33;;;30.30;99.90;;;;;;5086354;28;20043;-61
2022/05/19 02:19:55;;;;;;;45.45;35.20;;;30.40;99.90;;;;;;5091883;28;20115;-62
2022/05/19 02:22:25;;;;;;;39.47;33.08;;;30.40;99.90;;;;;;5092906;28;20477;-62
2022/05/19 02:24:58;;;;;;;40.47;31.23;;;30.40;99.90;;;;;;5093005;28;20039;-63
2022/05/19 02:27:32;;;;;;;45.42;33.88;;;30.40;99.90;;;;;;5090115;28;20485;-63
2022/05/19 02:30:01;;;;;;;47.00;33.83;;;30.40;99.90;;;;;;5086807;28;20028;-64
2022/05/19 02:32:28;;;;;;;39.35;33.33;;;30.50;99.90;;;;;;5092472;28;20485;-64
2022/05/19 02:34:55;;;;;;;49.63;36.55;;;30.60;99.90;;;;;;5092330;28;20366;-63
2022/05/19 02:37:22;;;;;;;46.80;40.25;;;30.60;99.90;;;;;;5092641;28;20047;-64
2022/05/19 02:39:48;;;;;;;54.85;43.17;;;30.70;99.90;;;;;;5092759;28;20103;-62
2022/05/19 02:42:15;;;;;;;81.22;60.97;;;30.80;99.90;;;;;;5093305;28;20077;-62
2022/05/19 02:44:42;;;;;;;52.90;41.65;;;30.80;99.90;;;;;;5092758;28;20435;-63
2022/05/19 02:47:09;;;;;;;52.70;44.08;;;31.00;99.90;;;;;;5102219;28;20024;-64
2022/05/19 02:49:35;;;;;;;52.67;43.08;;;31.10;99.90;;;;;;5093437;28;20473;-63
2022/05/19 02:52:02;;;;;;;61.13;47.80;;;31.20;99.90;;;;;;5092246;28;20090;-63
2022/05/19 02:54:29;;;;;;;71.65;56.08;;;31.20;99.90;;;;;;5089633;28;20012;-63
2022/05/19 02:56:56;;;;;;;57.63;41.38;;;31.20;99.90;;;;;;5094858;28;20016;-64
2022/05/19 02:59:22;;;;;;;45.25;37.70;;;31.30;99.90;;;;;;5095717;28;20012;-63
2022/05/19 03:01:49;;;;;;;58.53;44.63;;;31.40;99.90;;;;;;5097477;28;20016;-70
2022/05/19 03:04:16;;;;;;;45.45;35.50;;;31.50;99.90;;;;;;5097505;28;20177;-69
2022/05/19 03:06:42;;;;;;;55.13;40.30;;;31.50;99.90;;;;;;5096495;28;20027;-69
2022/05/19 03:09:10;;;;;;;45.85;34.53;;;31.50;99.90;;;;;;5094255;28;20477;-68
2022/05/19 03:11:36;;;;;;;52.15;38.10;;;31.40;99.90;;;;;;5092842;28;20027;-71
2022/05/19 03:14:03;;;;;;;53.15;40.08;;;31.50;99.90;;;;;;5092752;28;20106;-68
2022/05/19 03:16:30;;;;;;;48.38;39.45;;;31.50;99.90;;;;;;5090428;28;20073;-68
2022/05/19 03:18:57;;;;;;;71.38;51.70;;;31.50;99.90;;;;;;5092050;28;20050;-69
2022/05/19 03:21:24;;;;;;;53.65;42.38;;;31.60;99.90;;;;;;5089507;28;20090;-69
2022/05/19 03:23:51;;;;;;;53.35;43.08;;;31.60;99.90;;;;;;5092684;28;20070;-70
2022/05/19 03:26:17;;;;;;;53.00;44.22;;;31.60;99.90;;;;;;5075396;28;20022;-70
2022/05/19 03:28:44;;;;;;;45.25;36.72;;;31.60;99.90;;;;;;5092816;28;20103;-70
2022/05/19 03:31:11;;;;;;;47.88;38.25;;;31.80;99.90;;;;;;5094679;28;20489;-69
2022/05/19 03:33:37;;;;;;;37.95;32.92;;;31.90;99.90;;;;;;5092421;28;20354;-69
2022/05/19 03:36:06;;;;;;;44.85;34.97;;;32.00;99.90;;;;;;5088924;28;20104;-67
2022/05/19 03:38:32;;;;;;;40.85;33.95;;;32.10;99.90;;;;;;5090416;28;20028;-68
2022/05/19 03:40:59;;;;;;;53.05;39.78;;;32.10;99.90;;;;;;5095026;28;20020;-67
2022/05/19 03:43:26;;;;;;;44.20;36.33;;;32.00;99.90;;;;;;5091860;28;20023;-69
2022/05/19 03:45:53;;;;;;;66.10;53.55;;;32.10;99.90;;;;;;5092868;28;20065;-68
2022/05/19 03:48:20;;;;;;;49.72;38.55;;;32.30;99.90;;;;;;5096559;28;20028;-68
2022/05/19 03:50:47;;;;;;;43.47;37.80;;;32.20;99.90;;;;;;5096859;28;20024;-68
2022/05/19 03:53:14;;;;;;;40.30;30.88;;;32.20;99.90;;;;;;5094950;28;20103;-67
2022/05/19 03:55:41;;;;;;;43.90;32.13;;;32.30;99.70;;;;;;5087941;22;20377;-68
2022/05/19 03:58:08;;;;;;;44.15;37.22;;;32.30;99.90;;;;;;5094679;28;20446;-70
2022/05/19 04:00:35;;;;;;;43.22;33.00;;;32.30;99.90;;;;;;5097987;28;20050;-69
2022/05/19 04:03:02;;;;;;;38.05;31.90;;;32.30;99.10;;;;;;5097848;28;20055;-70
2022/05/19 04:05:29;;;;;;;38.75;32.97;;;32.30;99.60;;;;;;5095268;28;20204;-68
2022/05/19 04:07:56;;;;;;;34.75;30.85;;;32.40;99.90;;;;;;5098824;28;20024;-68
2022/05/19 04:10:23;;;;;;;39.90;31.58;;;32.50;98.50;;;;;;5098389;28;20372;-68
2022/05/19 04:12:49;;;;;;;35.90;30.80;;;32.40;99.10;;;;;;5096448;28;20020;-69
2022/05/19 04:15:17;;;;;;;34.60;29.85;;;32.50;98.80;;;;;;5083368;28;20024;-63
2022/05/19 04:17:43;;;;;;;35.90;29.50;;;32.70;97.00;;;;;;5093990;28;20089;-63
2022/05/19 04:20:13;;;;;;;35.33;30.25;;;32.80;96.80;;;;;;5097178;28;20381;-60
2022/05/19 04:22:40;;;;;;;36.33;32.40;;;32.70;96.90;;;;;;5099345;28;20023;-60
2022/05/19 04:25:08;;;;;;;45.75;32.60;;;32.80;98.00;;;;;;5098097;28;20069;-62
2022/05/19 04:27:35;;;;;;;36.22;30.73;;;32.70;97.80;;;;;;5099301;28;20416;-63
2022/05/19 04:30:03;;;;;;;42.67;32.58;;;32.80;97.30;;;;;;5098407;28;20031;-61
2022/05/19 04:32:29;;;;;;;39.95;31.67;;;32.90;97.70;;;;;;5097650;28;20082;-63
2022/05/19 04:34:56;;;;;;;42.00;32.40;;;33.00;97.00;;;;;;5098403;28;20051;-62
2022/05/19 04:37:23;;;;;;;54.72;45.55;;;33.10;96.60;;;;;;5099142;28;20024;-62
2022/05/19 04:39:49;;;;;;;93.13;69.43;;;33.20;94.60;;;;;;5099030;28;20062;-63
2022/05/19 04:42:16;;;;;;;62.08;51.55;;;33.20;94.70;;;;;;5099259;28;20022;-64
2022/05/19 04:44:43;;;;;;;38.53;33.42;;;33.10;94.20;;;;;;5098501;28;20024;-62
2022/05/19 04:47:09;;;;;;;70.10;53.97;;;33.10;94.80;;;;;;5099070;28;20229;-62
2022/05/19 04:49:36;;;;;;;39.00;33.33;;;33.00;95.30;;;;;;5098297;28;20035;-62
2022/05/19 04:52:03;;;;;;;39.53;33.83;;;32.90;94.40;;;;;;5098186;28;20295;-63
2022/05/19 04:54:30;;;;;;;34.08;30.42;;;33.00;94.70;;;;;;5097438;28;20027;-63
2022/05/19 04:56:56;;;;;;;39.03;31.63;;;33.30;94.30;;;;;;5098375;28;20337;-63
2022/05/19 04:59:23;;;;;;;38.53;34.40;;;33.30;94.30;;;;;;5102723;28;20024;-63
2022/05/19 05:01:50;;;;;;;35.75;30.35;;;33.30;93.90;;;;;;5096014;28;20070;-64
2022/05/19 05:04:19;;;;;;;37.20;30.55;;;33.40;94.00;;;;;;5094834;28;20099;-63
2022/05/19 05:06:46;;;;;;;34.65;29.83;;;33.40;93.60;;;;;;5095289;28;20030;-62
2022/05/19 05:09:13;;;;;;;39.38;33.08;;;33.50;92.20;;;;;;5094396;28;20436;-63
2022/05/19 05:11:41;;;;;;;31.10;27.77;;;33.50;93.10;;;;;;5094848;28;20044;-64
2022/05/19 05:14:08;;;;;;;33.47;29.88;;;33.50;91.70;;;;;;5093767;28;20024;-63
2022/05/19 05:16:35;;;;;;;37.53;32.47;;;33.60;90.90;;;;;;5093354;28;20031;-62
2022/05/19 05:19:03;;;;;;;45.00;36.95;;;33.60;93.30;;;;;;5093590;28;20032;-62
2022/05/19 05:21:30;;;;;;;39.75;35.17;;;33.70;94.10;;;;;;5094697;28;20025;-62
2022/05/19 05:23:57;;;;;;;41.85;35.17;;;33.60;94.00;;;;;;5094248;28;20024;-62
2022/05/19 05:26:23;;;;;;;43.30;38.38;;;33.50;93.20;;;;;;5094643;28;20103;-62
2022/05/19 05:28:50;;;;;;;45.22;38.10;;;33.50;92.90;;;;;;5095294;28;20095;-62
2022/05/19 05:31:17;;;;;;;44.50;38.35;;;33.50;92.90;;;;;;5094276;28;20085;-62
2022/05/19 05:33:43;;;;;;;43.38;36.22;;;33.60;92.50;;;;;;5091279;28;20046;-62
2022/05/19 05:36:10;;;;;;;46.72;39.85;;;33.60;92.80;;;;;;5090231;28;20438;-62
2022/05/19 05:38:37;;;;;;;46.13;37.38;;;33.60;92.80;;;;;;5093641;28;20538;-62
2022/05/19 05:41:03;;;;;;;47.92;40.22;;;33.60;92.60;;;;;;5092558;28;20028;-63
2022/05/19 05:43:31;;;;;;;41.75;34.88;;;33.60;92.80;;;;;;5093279;28;20051;-62
2022/05/19 05:46:06;;;;;;;42.03;36.30;;;33.70;91.40;;;;;;5093584;28;20252;-63
2022/05/19 05:48:36;;;;;;;43.90;36.58;;;33.80;91.60;;;;;;5093565;28;20557;-64
2022/05/19 05:51:05;;;;;;;42.38;36.65;;;33.80;91.40;;;;;;5093389;28;20127;-65
2022/05/19 05:53:32;;;;;;;42.20;37.70;;;33.70;91.10;;;;;;5096874;28;20030;-64
2022/05/19 05:55:59;;;;;;;46.15;34.70;;;33.60;90.40;;;;;;5092880;28;20081;-65
2022/05/19 05:58:26;;;;;;;39.95;35.85;;;33.70;90.10;;;;;;5093001;28;20051;-63
2022/05/19 06:00:53;;;;;;;40.05;35.00;;;33.80;90.50;;;;;;5092890;28;20032;-62
2022/05/19 06:03:20;;;;;;;41.88;37.17;;;33.90;90.60;;;;;;5092546;28;20415;-61
2022/05/19 06:05:47;;;;;;;44.25;38.55;;;34.00;90.80;;;;;;5092124;28;20476;-62
2022/05/19 06:08:14;;;;;;;43.83;37.63;;;34.00;90.60;;;;;;5093050;28;20481;-62
2022/05/19 06:10:40;;;;;;;39.55;35.35;;;34.00;90.80;;;;;;5092704;28;20081;-62
2022/05/19 06:13:08;;;;;;;40.50;36.30;;;34.10;90.00;;;;;;5092545;28;20026;-64
2022/05/19 06:15:35;;;;;;;39.38;34.53;;;34.10;89.50;;;;;;5092984;28;20017;-64
2022/05/19 06:18:02;;;;;;;36.47;32.17;;;34.10;89.70;;;;;;5093295;28;20031;-62
2022/05/19 06:20:29;;;;;;;35.92;32.03;;;34.20;88.60;;;;;;5092149;28;20028;-62
2022/05/19 06:22:58;;;;;;;34.85;31.08;;;34.30;86.70;;;;;;5092098;28;20020;-65
2022/05/19 06:25:26;;;;;;;35.25;31.10;;;34.40;87.00;;;;;;5089625;28;20473;-63
2022/05/19 06:27:53;;;;;;;35.67;31.52;;;34.30;87.20;;;;;;5089113;28;20028;-62
2022/05/19 06:30:22;;;;;;;35.60;30.73;;;34.40;89.10;;;;;;5088250;28;20035;-62
2022/05/19 06:32:49;;;;;;;31.25;27.85;;;34.50;88.30;;;;;;5084146;28;20036;-62
2022/05/19 06:35:20;;;;;;;33.25;28.88;;;34.50;83.00;;;;;;5085439;28;20603;-60
2022/05/19 06:37:47;;;;;;;31.45;28.05;;;34.40;85.50;;;;;;5092763;28;20024;-62
2022/05/19 06:40:15;;;;;;;35.70;28.05;;;34.40;85.80;;;;;;5088978;28;20066;-62
2022/05/19 06:42:43;;;;;;;30.85;27.33;;;34.40;86.40;;;;;;5089843;28;20029;-62
2022/05/19 06:45:12;;;;;;;31.17;26.95;;;34.50;85.00;;;;;;5092611;28;20038;-64
2022/05/19 06:47:39;;;;;;;32.20;27.67;;;34.60;83.10;;;;;;5089427;28;20101;-62
2022/05/19 06:50:09;;;;;;;31.10;28.05;;;34.70;85.10;;;;;;5091271;28;20095;-64
2022/05/19 06:52:43;;;;;;;32.45;28.83;;;34.80;83.10;;;;;;5091987;28;20030;-63
2022/05/19 06:55:11;;;;;;;30.55;25.90;;;34.90;84.30;;;;;;5090887;28;20350;-62
2022/05/19 06:57:38;;;;;;;30.88;26.20;;;35.00;82.40;;;;;;5088514;28;20051;-63
2022/05/19 07:00:07;;;;;;;32.03;27.35;;;35.00;81.40;;;;;;5086986;28;20274;-61
2022/05/19 07:02:34;;;;;;;35.78;29.73;;;34.90;83.10;;;;;;5087560;28;20017;-63
2022/05/19 07:05:01;;;;;;;82.75;35.28;;;34.90;81.20;;;;;;5089899;28;20457;-63
2022/05/19 07:07:28;;;;;;;31.85;21.05;;;35.00;81.20;;;;;;5090991;28;20445;-61
2022/05/19 07:09:55;;;;;;;32.42;23.65;;;34.90;79.40;;;;;;5093141;28;20079;-62
2022/05/19 07:12:23;;;;;;;29.30;25.55;;;34.90;80.30;;;;;;5091033;28;20016;-63
2022/05/19 07:14:51;;;;;;;30.65;23.98;;;34.90;81.30;;;;;;5091536;28;20020;-62
2022/05/19 07:17:19;;;;;;;27.90;22.73;;;34.90;80.90;;;;;;5091812;28;20464;-61
2022/05/19 07:22:34;;;;;;;37.92;22.55;;;34.80;81.50;;;;;;5087755;28;20020;-62
2022/05/19 07:25:03;;;;;;;32.13;22.95;;;34.80;79.00;;;;;;5092396;28;20042;-63
2022/05/19 07:27:30;;;;;;;26.92;20.50;;;34.80;80.30;;;;;;5092331;28;20027;-63
2022/05/19 07:29:59;;;;;;;25.98;19.88;;;34.60;76.80;;;;;;5093432;28;20024;-63
2022/05/19 07:32:26;;;;;;;29.00;21.38;;;34.50;77.30;;;;;;5091116;28;20039;-62
2022/05/19 07:34:52;;;;;;;24.05;19.20;;;34.60;79.70;;;;;;5092425;28;20103;-62
2022/05/19 07:37:19;;;;;;;94.30;74.13;;;34.60;78.70;;;;;;5092441;28;20024;-64
2022/05/19 07:39:46;;;;;;;51.70;39.58;;;34.60;78.00;;;;;;5092181;28;20032;-63
2022/05/19 07:42:12;;;;;;;54.72;42.30;;;34.60;79.20;;;;;;5092975;28;20024;-63
2022/05/19 07:44:41;;;;;;;37.63;27.05;;;34.60;78.70;;;;;;5094838;28;20032;-63
2022/05/19 07:47:07;;;;;;;34.97;29.52;;;34.60;77.30;;;;;;5094335;28;20073;-62
2022/05/19 07:49:35;;;;;;;47.20;35.78;;;34.60;80.30;;;;;;5092311;28;20012;-63
2022/05/19 07:52:01;;;;;;;27.83;20.63;;;34.60;78.40;;;;;;5094127;28;20464;-62
2022/05/19 07:54:39;;;;;;;26.90;20.92;;;34.50;79.80;;;;;;5088317;28;20028;-65
2022/05/19 07:57:08;;;;;;;28.73;20.33;;;34.50;80.60;;;;;;5087950;28;20047;-63
2022/05/19 07:59:35;;;;;;;26.75;20.50;;;34.30;78.60;;;;;;5095783;28;20058;-63
2022/05/19 08:02:02;;;;;;;24.50;20.20;;;34.30;80.40;;;;;;5076123;28;20020;-63
2022/05/19 08:04:29;;;;;;;21.27;18.98;;;34.40;77.70;;;;;;5079959;28;20028;-63
2022/05/19 08:06:56;;;;;;;25.77;19.30;;;34.40;78.20;;;;;;5096477;28;20100;-62
2022/05/19 08:15:34;;;;;;;31.95;19.70;;;34.30;76.20;;;;;;5093797;28;20028;-63
2022/05/19 08:17:52;;;;;;;46.35;31.35;;;34.30;80.10;;;;;;5095957;28;20016;-63
2022/05/19 08:20:19;;;;;;;32.30;21.08;;;34.30;78.50;;;;;;5095280;28;20024;-62
2022/05/19 08:22:46;;;;;;;31.08;20.33;;;34.30;78.60;;;;;;5095482;28;20028;-63
2022/05/19 08:25:13;;;;;;;27.73;16.52;;;34.30;79.00;;;;;;5094856;28;20373;-63
2022/05/19 08:27:44;;;;;;;28.65;18.58;;;34.40;78.20;;;;;;5093653;28;20070;-64
2022/05/19 08:30:12;;;;;;;27.65;14.35;;;34.50;78.20;;;;;;5075533;28;20465;-63
2022/05/19 08:32:39;;;;;;;23.80;13.20;;;34.50;73.90;;;;;;5075950;28;20032;-63
2022/05/19 08:35:08;;;;;;;21.33;13.48;;;34.50;73.90;;;;;;5084686;28;20043;-64
2022/05/19 08:37:34;;;;;;;47.63;33.67;;;34.50;73.50;;;;;;5084936;28;20039;-62
2022/05/19 08:40:01;;;;;;;29.85;19.83;;;34.50;75.50;;;;;;5081331;28;20031;-63
2022/05/19 08:42:34;;;;;;;35.75;27.40;;;34.50;76.20;;;;;;5093760;28;20024;-63
2022/05/19 08:45:04;;;;;;;21.38;15.73;;;34.50;76.40;;;;;;5092577;28;20100;-63
2022/05/19 08:47:34;;;;;;;22.95;14.73;;;34.40;76.30;;;;;;5094691;28;20024;-63
2022/05/19 08:50:07;;;;;;;21.48;13.73;;;34.40;78.20;;;;;;5090172;28;20032;-64
2022/05/19 08:52:40;;;;;;;21.02;13.50;;;34.40;77.20;;;;;;5090333;28;20020;-64
2022/05/19 08:55:08;;;;;;;19.67;11.90;;;34.40;75.80;;;;;;5092310;28;20490;-63
2022/05/19 08:57:43;;;;;;;20.35;11.75;;;34.30;75.60;;;;;;5094370;28;20503;-64
2022/05/19 09:00:24;;;;;;;21.27;13.60;;;34.30;75.10;;;;;;5094199;28;20044;-64
2022/05/19 09:03:04;;;;;;;24.33;13.83;;;34.30;76.90;;;;;;5092471;28;20028;-65
2022/05/19 09:05:37;;;;;;;20.52;13.27;;;34.20;77.80;;;;;;5089599;28;20808;-65
2022/05/19 09:08:07;;;;;;;29.45;15.32;;;34.20;78.20;;;;;;5087355;28;20020;-64
2022/05/19 09:10:50;;;;;;;20.88;13.50;;;34.20;77.90;;;;;;5093372;28;20089;-65
2022/05/19 09:13:25;;;;;;;23.73;13.18;;;34.20;78.00;;;;;;5089365;28;20051;-64
2022/05/19 09:15:52;;;;;;;25.73;12.07;;;34.20;77.10;;;;;;5090781;28;20020;-65
2022/05/19 09:18:25;;;;;;;23.40;12.75;;;34.20;77.60;;;;;;5089999;28;20032;-65
2022/05/19 09:20:55;;;;;;;22.50;14.57;;;34.20;76.50;;;;;;5092305;28;20030;-65
2022/05/19 09:23:23;;;;;;;46.88;34.50;;;34.20;75.90;;;;;;5094530;28;20081;-66
2022/05/19 09:25:58;;;;;;;34.85;22.25;;;34.20;74.90;;;;;;5094137;28;20039;-65
2022/05/19 09:28:24;;;;;;;44.53;29.42;;;34.10;76.10;;;;;;5090372;28;20016;-64
2022/05/19 09:30:54;;;;;;;32.20;21.17;;;34.10;77.50;;;;;;5094216;28;20031;-63
2022/05/19 09:33:44;;;;;;;44.30;35.10;;;34.10;76.70;;;;;;5094266;28;20487;-65
2022/05/19 09:36:14;;;;;;;25.25;14.27;;;34.10;78.00;;;;;;5102428;28;20418;-62
2022/05/19 09:38:49;;;;;;;24.17;13.60;;;34.10;77.90;;;;;;5099903;28;20032;-61
2022/05/19 09:41:17;;;;;;;19.23;12.88;;;34.10;78.20;;;;;;5111848;28;20115;-62
2022/05/19 09:43:51;;;;;;;22.58;14.05;;;34.00;75.90;;;;;;5114871;28;20016;-63
2022/05/19 09:46:18;;;;;;;27.58;16.85;;;34.00;75.40;;;;;;5115668;28;20015;-62
2022/05/19 09:49:05;;;;;;;42.83;25.08;;;34.00;76.50;;;;;;5096544;28;20020;-62
2022/05/19 09:51:41;;;;;;;202.25;153.98;;;34.00;77.70;;;;;;5094953;28;20020;-63
2022/05/19 09:54:12;;;;;;;47.22;34.50;;;33.90;77.40;;;;;;5090361;28;20020;-63
2022/05/19 09:56:47;;;;;;;109.32;78.80;;;33.90;77.40;;;;;;5093312;28;20447;-62
2022/05/19 09:59:18;;;;;;;42.35;24.75;;;33.90;78.10;;;;;;5092276;28;20103;-64
2022/05/19 10:01:47;;;;;;;49.33;30.17;;;33.80;77.90;;;;;;5090388;28;20024;-62
2022/05/19 10:04:18;;;;;;;361.90;219.63;;;33.80;78.20;;;;;;5093261;28;20020;-62
2022/05/19 10:06:55;;;;;;;79.87;45.00;;;33.80;78.90;;;;;;5087116;28;20473;-62
2022/05/19 10:09:29;;;;;;;177.55;111.35;;;33.80;78.70;;;;;;5087694;28;20268;-63
2022/05/19 10:12:11;;;;;;;53.00;33.53;;;33.70;77.20;;;;;;5089288;28;20058;-62
2022/05/19 10:14:40;;;;;;;61.53;37.63;;;33.70;77.50;;;;;;5093105;28;20035;-63
2022/05/19 10:17:26;;;;;;;87.80;61.42;;;33.70;79.10;;;;;;5090997;28;20104;-62
2022/05/19 10:20:22;;;;;;;46.17;28.73;;;33.60;78.80;;;;;;5089207;28;20020;-62
2022/05/19 10:22:58;;;;;;;73.53;48.08;;;33.60;81.00;;;;;;5006837;28;20115;-64
2022/05/19 10:25:41;;;;;;;32.60;21.20;;;33.60;78.00;;;;;;5011848;28;20085;-64
2022/05/19 10:31:06;;;;;;;38.65;20.02;;;33.50;80.00;;;;;;5016697;28;20144;-62
2022/05/19 10:33:58;;;;;;;41.55;29.42;;;33.40;80.70;;;;;;5016337;28;20041;-63
2022/05/19 10:36:33;;;;;;;37.08;24.83;;;33.40;80.70;;;;;;5018763;28;20029;-63
2022/05/19 10:39:16;;;;;;;33.03;23.00;;;33.30;78.60;;;;;;5017258;28;20265;-65
2022/05/19 10:41:57;;;;;;;39.50;29.15;;;33.30;79.10;;;;;;5017113;28;20033;-63
2022/05/19 10:44:53;;;;;;;49.43;35.13;;;33.30;81.50;;;;;;5021109;28;20049;-64
2022/05/19 10:47:50;;;;;;;54.40;34.10;;;33.30;78.30;;;;;;5019128;28;20286;-61
2022/05/19 10:50:30;;;;;;;35.75;19.52;;;33.20;79.30;;;;;;5011135;28;20057;-63
2022/05/19 10:53:07;;;;;;;67.90;45.88;;;33.20;78.80;;;;;;5024560;28;20492;-64
2022/05/19 10:55:36;;;;;;;73.68;56.38;;;33.20;79.70;;;;;;5023177;28;20087;-63
2022/05/19 10:58:12;;;;;;;35.38;22.83;;;33.20;81.00;;;;;;5021373;28;20041;-62
2022/05/19 11:01:09;;;;;;;31.35;19.63;;;33.20;82.00;;;;;;5018587;28;20417;-64
2022/05/19 11:03:45;;;;;;;58.05;32.88;;;33.10;80.90;;;;;;5014748;28;20025;-63
2022/05/19 11:06:29;;;;;;;63.20;32.20;;;33.10;79.70;;;;;;5008991;28;20021;-64
2022/05/19 11:09:16;;;;;;;53.50;31.58;;;33.00;79.50;;;;;;5010001;28;20503;-62
2022/05/19 11:12:23;;;;;;;56.90;33.70;;;33.00;80.00;;;;;;5010706;28;20037;-62
2022/05/19 11:15:09;;;;;;;67.80;42.53;;;32.80;80.00;;;;;;5011517;28;20037;-64
2022/05/19 11:17:44;;;;;;;74.95;48.55;;;32.40;86.40;;;;;;5019290;28;20073;-63
2022/05/19 11:20:34;;;;;;;62.22;44.17;;;32.30;88.20;;;;;;5079353;28;20539;-62
2022/05/19 11:23:15;;;;;;;67.55;46.28;;;32.00;89.70;;;;;;5094852;28;20024;-62
2022/05/19 11:28:36;;;;;;;74.13;50.80;;;31.80;90.50;;;;;;5094050;28;20403;-62
2022/05/19 11:31:14;;;;;;;66.15;47.58;;;31.70;90.70;;;;;;5096453;28;20027;-64
2022/05/19 11:33:45;;;;;;;66.13;47.83;;;31.50;91.50;;;;;;5094882;28;20053;-64
2022/05/19 11:36:20;;;;;;;71.95;49.15;;;31.50;91.50;;;;;;5095976;28;20025;-63
2022/05/19 11:38:56;;;;;;;75.72;53.78;;;31.60;91.50;;;;;;5093273;28;20454;-63
2022/05/19 11:41:27;;;;;;;67.57;49.80;;;31.60;91.60;;;;;;5089913;28;20404;-63
2022/05/19 11:44:18;;;;;;;65.40;49.20;;;31.50;91.70;;;;;;5096000;28;20377;-62
2022/05/19 11:46:49;;;;;;;79.13;58.47;;;31.50;92.10;;;;;;5032049;28;20032;-63
2022/05/19 11:55:37;;;;;;;101.10;76.72;;;31.50;92.60;;;;;;5041531;28;20072;-63
2022/05/19 11:58:10;;;;;;;91.10;71.75;;;31.50;92.90;;;;;;5044119;28;20123;-62
2022/05/19 12:01:00;;;;;;;91.07;67.93;;;31.40;93.00;;;;;;5025020;28;20168;-62
2022/05/19 12:03:43;;;;;;;74.72;54.42;;;31.30;93.10;;;;;;5038394;28;20109;-62
2022/05/19 12:06:12;;;;;;;77.57;52.63;;;31.20;93.70;;;;;;5040521;28;20018;-61
2022/05/19 12:09:18;;;;;;;63.05;49.67;;;31.20;94.20;;;;;;5042828;28;20478;-62
2022/05/19 12:11:45;;;;;;;71.07;51.03;;;31.20;94.00;;;;;;5042386;28;20047;-60
2022/05/19 12:14:13;;;;;;;63.28;47.75;;;31.10;94.20;;;;;;5041268;28;20592;-63
2022/05/19 12:16:57;;;;;;;57.25;42.80;;;31.00;94.10;;;;;;5034070;28;20402;-62
2022/05/19 12:19:33;;;;;;;47.92;39.03;;;30.80;94.10;;;;;;5015444;28;20386;-60
2022/05/19 12:22:03;;;;;;;50.83;39.03;;;30.90;94.40;;;;;;5032674;28;20549;-61
2022/05/19 12:24:50;;;;;;;57.42;39.65;;;30.80;94.30;;;;;;5080813;28;20037;-62
2022/05/19 12:27:23;;;;;;;57.88;40.97;;;30.80;93.90;;;;;;5093465;28;20039;-59
2022/05/19 12:33:22;;;;;;;53.65;41.90;;;30.70;94.50;;;;;;5101156;28;20049;-62
2022/05/19 12:35:52;;;;;;;52.72;39.35;;;30.60;95.00;;;;;;5075626;28;20438;-62
2022/05/19 12:38:28;;;;;;;48.70;38.13;;;30.70;95.00;;;;;;5095726;28;20516;-62
2022/05/19 12:40:58;;;;;;;51.67;40.25;;;30.60;95.20;;;;;;5094665;28;20035;-62
2022/05/19 12:43:37;;;;;;;52.17;38.65;;;30.70;95.70;;;;;;5084810;28;20020;-63
2022/05/19 12:46:09;;;;;;;45.05;36.90;;;30.60;94.80;;;;;;5096018;28;20020;-62
2022/05/19 12:48:36;;;;;;;49.60;39.10;;;30.60;94.90;;;;;;5095889;28;20030;-63
2022/05/19 12:51:08;;;;;;;54.75;37.75;;;30.50;94.50;;;;;;5092526;28;20045;-63
2022/05/19 12:53:40;;;;;;;51.83;41.42;;;30.50;95.40;;;;;;5093167;28;20028;-64
2022/05/19 12:56:07;;;;;;;56.28;39.97;;;30.60;95.40;;;;;;5091946;28;20423;-64
2022/05/19 12:58:39;;;;;;;55.15;41.38;;;30.60;95.40;;;;;;5089549;28;20031;-63
2022/05/19 13:01:16;;;;;;;55.78;40.80;;;30.60;96.20;;;;;;5090839;28;20485;-64
2022/05/19 13:03:47;;;;;;;51.60;40.10;;;30.60;95.40;;;;;;5089506;28;20471;-63
2022/05/19 13:06:14;;;;;;;50.85;40.92;;;30.50;95.40;;;;;;5095104;28;20366;-60
2022/05/19 13:08:49;;;;;;;55.40;41.90;;;30.50;95.80;;;;;;5094804;28;20028;-62
2022/05/19 13:11:23;;;;;;;58.65;40.70;;;30.40;95.70;;;;;;5083464;22;20424;-61